Time;durP1;ratioP1;P1;durP2;ratioP2;P2;SDS_P1;SDS_P2;PMS_P1;PMS_P2;Temp;Humidity;BMP_temperature;BMP_pressure;BME280_temperature;BME280_humidity;BME280_pressure;Samples;Min_cycle;Max_cycle;Signal;HPM_P1;HPM_P2
2022/01/12 00:00:14;;;;;;;;;;;;;;;;;;5046327;28;19924;-77
2022/01/12 00:02:39;;;;;;;;;;;;;;;;;;5047097;28;19935;-77
2022/01/12 00:05:05;;;;;;;;;;;;;;;;;;5046660;28;19917;-77
2022/01/12 00:07:32;;;;;;;;;;;;;;;;;;5053200;28;19924;-77
2022/01/12 00:09:59;;;;;;;;;;;;;;;;;;5055129;28;20003;-75
2022/01/12 00:12:26;;;;;;;;;;;;;;;;;;5055968;28;19917;-76
2022/01/12 00:14:51;;;;;;;;;;;;;;;;;;5044096;28;20247;-76
2022/01/12 00:17:16;;;;;;;;;;;;;;;;;;5050855;28;19917;-76
2022/01/12 00:19:44;;;;;;;;;;;;;;;;;;5050941;28;19932;-77
2022/01/12 00:22:09;;;;;;;;;;;;;;;;;;5055057;28;19928;-76
2022/01/12 00:33:11;;;;;;;;;;;;;;;;;;5039395;28;20263;-76
2022/01/12 00:35:38;;;;;;;;;;;;;;;;;;5054237;28;20357;-75
2022/01/12 00:38:03;;;;;;;;;;;;;;;;;;5046048;28;19917;-76
2022/01/12 00:40:33;;;;;;;;;;;;;;;;;;5044585;28;19955;-75
2022/01/12 00:43:03;;;;;;;;;;;;;;;;;;5047761;28;19983;-76
2022/01/12 00:45:30;;;;;;;;;;;;;;;;;;5048687;28;20589;-76
2022/01/12 00:47:56;;;;;;;;;;;;;;;;;;5045151;28;20288;-77
2022/01/12 00:50:23;;;;;;;;;;;;;;;;;;5045980;28;19917;-76
2022/01/12 00:52:48;;;;;;;;;;;;;;;;;;5046679;28;19912;-77
2022/01/12 00:55:13;;;;;;;;;;;;;;;;;;5047848;28;19928;-76
2022/01/12 00:57:42;;;;;;;;;;;;;;;;;;5047380;28;19928;-76
2022/01/12 01:00:07;;;;;;;;;;;;;;;;;;5045529;28;19914;-76
2022/01/12 01:02:33;;;;;;;;;;;;;;;;;;5050044;28;20015;-76
2022/01/12 01:05:01;;;;;;;;;;;;;;;;;;5026091;28;19913;-76
2022/01/12 01:07:26;;;;;;;;;;;;;;;;;;5047974;28;20330;-75
2022/01/12 01:10:05;;;;;;;;;;;;;;;;;;5054486;28;19932;-76
2022/01/12 01:12:34;;;;;;;;;;;;;;;;;;5038711;28;20000;-75
2022/01/12 01:25:37;;;;;;;;;;;;;;;;;;5054352;28;19947;-76
2022/01/12 01:28:03;;;;;;;;;;;;;;;;;;5054320;28;19920;-76
2022/01/12 01:30:31;;;;;;;;;;;;;;;;;;5054071;28;19917;-75
2022/01/12 01:33:03;;;;;;;;;;;;;;;;;;5053945;28;19932;-75
2022/01/12 01:35:31;;;;;;;;;;;;;;;;;;5054623;28;19928;-74
2022/01/12 01:38:02;;;;;;;;;;;;;;;;;;5054137;28;19939;-75
2022/01/12 01:40:34;;;;;;;;;;;;;;;;;;5053219;28;20365;-75
2022/01/12 01:53:39;;;;;;;;;;;;;;;;;;5049608;28;19927;-76
2022/01/12 01:56:05;;;;;;;;;;;;;;;;;;5056756;28;20007;-76
2022/01/12 01:58:30;;;;;;;;;;;;;;;;;;5057049;28;20265;-75
2022/01/12 02:00:55;;;;;;;;;;;;;;;;;;5056794;28;20015;-76
2022/01/12 02:03:26;;;;;;;;;;;;;;;;;;5057954;28;20380;-75
2022/01/12 02:05:53;;;;;;;;;;;;;;;;;;5041217;28;20329;-75
2022/01/12 02:08:18;;;;;;;;;;;;;;;;;;5055677;28;19929;-75
2022/01/12 02:10:44;;;;;;;;;;;;;;;;;;5057053;28;20345;-75
2022/01/12 02:13:11;;;;;;;;;;;;;;;;;;5058104;28;19913;-75
2022/01/12 02:15:40;;;;;;;;;;;;;;;;;;5039644;28;19917;-75
2022/01/12 02:18:32;;;;;;;;;;;;;;;;;;;;;
2022/01/12 02:37:14;;;;;;;;;;;;;;;;;;5056371;28;19927;-75
2022/01/12 02:39:56;;;;;;;;;;;;;;;;;;5057217;28;19928;-76
2022/01/12 02:42:27;;;;;;;;;;;;;;;;;;5058326;28;19966;-75
2022/01/12 02:50:47;;;;;;;;;;;;;;;;;;5019116;28;19918;-75
2022/01/12 02:55:57;;;;;;;;;;;;;;;;;;5048149;28;19974;-76
2022/01/12 02:58:24;;;;;;;;;;;;;;;;;;5056303;28;19916;-76
2022/01/12 03:03:42;;;;;;;;;;;;;;;;;;5036797;28;19931;-76
2022/01/12 03:06:10;;;;;;;;;;;;;;;;;;5054804;28;19916;-76
2022/01/12 03:08:38;;;;;;;;;;;;;;;;;;5056134;28;20227;-77
2022/01/12 03:11:04;;;;;;;;;;;;;;;;;;5055983;28;19970;-76
2022/01/12 03:13:32;;;;;;;;;;;;;;;;;;5056903;28;19924;-76
2022/01/12 03:15:57;;;;;;;;;;;;;;;;;;5056245;28;19916;-76
2022/01/12 03:18:23;;;;;;;;;;;;;;;;;;5056458;28;19917;-76
2022/01/12 03:20:48;;;;;;;;;;;;;;;;;;5055764;28;20007;-76
2022/01/12 03:23:17;;;;;;;;;;;;;;;;;;5055397;28;20243;-76
2022/01/12 03:25:48;;;;;;;;;;;;;;;;;;5056316;28;19921;-76
2022/01/12 03:28:13;;;;;;;;;;;;;;;;;;5056725;28;20261;-76
2022/01/12 03:30:52;;;;;;;;;;;;;;;;;;5055261;28;19917;-76
2022/01/12 03:33:33;;;;;;;;;;;;;;;;;;5056975;28;19928;-76
2022/01/12 03:38:43;;;;;;;;;;;;;;;;;;5055895;28;19931;-77
2022/01/12 03:41:08;;;;;;;;;;;;;;;;;;5056221;28;19917;-75
2022/01/12 03:43:33;;;;;;;;;;;;;;;;;;5054880;28;19924;-76
2022/01/12 03:45:58;;;;;;;;;;;;;;;;;;5055504;28;19925;-76
2022/01/12 03:48:24;;;;;;;;;;;;;;;;;;5052066;28;19921;-76
2022/01/12 03:50:49;;;;;;;;;;;;;;;;;;5055065;28;19912;-76
2022/01/12 03:53:14;;;;;;;;;;;;;;;;;;5054669;28;20006;-76
2022/01/12 03:55:40;;;;;;;;;;;;;;;;;;5051753;28;19927;-75
2022/01/12 03:58:06;;;;;;;;;;;;;;;;;;5052971;28;19925;-76
2022/01/12 04:00:33;;;;;;;;;;;;;;;;;;5055014;28;20296;-75
2022/01/12 04:03:00;;;;;;;;;;;;;;;;;;5055934;28;20019;-76
2022/01/12 04:08:22;;;;;;;;;;;;;;;;;;5055578;28;20261;-75
2022/01/12 04:10:47;;;;;;;;;;;;;;;;;;5054532;28;19916;-76
2022/01/12 04:13:17;;;;;;;;;;;;;;;;;;5055186;28;19971;-76
2022/01/12 04:15:43;;;;;;;;;;;;;;;;;;5054839;28;20003;-75
2022/01/12 04:18:08;;;;;;;;;;;;;;;;;;5055346;28;19949;-76
2022/01/12 04:20:34;;;;;;;;;;;;;;;;;;5055161;28;19916;-76
2022/01/12 04:23:20;;;;;;;;;;;;;;;;;;5055071;28;20348;-76
2022/01/12 04:25:46;;;;;;;;;;;;;;;;;;5055424;28;19916;-76
2022/01/12 04:28:11;;;;;;;;;;;;;;;;;;5054333;28;20434;-76
2022/01/12 04:30:36;;;;;;;;;;;;;;;;;;5054447;28;20003;-75
2022/01/12 04:33:01;;;;;;;;;;;;;;;;;;5054744;28;19921;-76
2022/01/12 04:35:32;;;;;;;;;;;;;;;;;;5034158;28;19921;-75
2022/01/12 04:37:59;;;;;;;;;;;;;;;;;;5040926;28;19982;-75
2022/01/12 04:40:25;;;;;;;;;;;;;;;;;;5055088;28;19917;-76
2022/01/12 04:42:53;;;;;;;;;;;;;;;;;;5054016;28;19916;-76
2022/01/12 04:50:19;;;;;;;;;;;;;;;;;;5054900;28;19949;-77
2022/01/12 04:52:44;;;;;;;;;;;;;;;;;;5033245;28;19960;-76
2022/01/12 04:55:09;;;;;;;;;;;;;;;;;;5053714;28;19921;-75
2022/01/12 04:57:39;;;;;;;;;;;;;;;;;;5055218;28;19913;-74
2022/01/12 05:00:13;;;;;;;;;;;;;;;;;;5054055;28;19956;-76
2022/01/12 05:13:26;;;;;;;;;;;;;;;;;;5050447;28;19944;-76
2022/01/12 05:15:52;;;;;;;;;;;;;;;;;;5054965;28;19928;-75
2022/01/12 05:18:17;;;;;;;;;;;;;;;;;;5053458;28;19925;-75
2022/01/12 05:20:44;;;;;;;;;;;;;;;;;;5054397;28;19932;-75
2022/01/12 05:23:12;;;;;;;;;;;;;;;;;;5054238;28;20234;-74
2022/01/12 05:25:37;;;;;;;;;;;;;;;;;;5054585;28;20004;-75
2022/01/12 05:28:02;;;;;;;;;;;;;;;;;;5050313;28;19948;-75
2022/01/12 05:30:28;;;;;;;;;;;;;;;;;;5053881;28;19970;-76
2022/01/12 05:32:53;;;;;;;;;;;;;;;;;;5054070;28;19943;-75
2022/01/12 05:35:21;;;;;;;;;;;;;;;;;;5054058;28;19995;-75
2022/01/12 05:37:46;;;;;;;;;;;;;;;;;;5054015;28;19916;-75
2022/01/12 05:40:12;;;;;;;;;;;;;;;;;;5036083;28;19982;-75
2022/01/12 05:42:37;;;;;;;;;;;;;;;;;;5054082;28;20287;-74
2022/01/12 05:45:03;;;;;;;;;;;;;;;;;;5053900;28;19916;-74
2022/01/12 05:50:17;;;;;;;;;;;;;;;;;;5039216;28;19917;-75
2022/01/12 05:52:45;;;;;;;;;;;;;;;;;;5053904;28;19920;-75
2022/01/12 05:55:13;;;;;;;;;;;;;;;;;;5053790;28;19955;-74
2022/01/12 05:57:38;;;;;;;;;;;;;;;;;;5053389;28;19935;-74
2022/01/12 06:00:13;;;;;;;;;;;;;;;;;;5052982;28;19916;-75
2022/01/12 06:02:38;;;;;;;;;;;;;;;;;;5068255;28;19948;-74
2022/01/12 06:05:03;;;;;;;;;;;;;;;;;;5053872;28;19955;-74
2022/01/12 06:07:31;;;;;;;;;;;;;;;;;;5054116;28;20341;-75
2022/01/12 06:09:56;;;;;;;;;;;;;;;;;;5050577;28;19939;-75
2022/01/12 06:12:22;;;;;;;;;;;;;;;;;;5053573;28;20449;-76
2022/01/12 06:14:49;;;;;;;;;;;;;;;;;;5052614;28;19970;-75
2022/01/12 06:17:15;;;;;;;;;;;;;;;;;;5053725;28;20362;-75
2022/01/12 06:19:40;;;;;;;;;;;;;;;;;;5053937;28;19971;-75
2022/01/12 06:22:06;;;;;;;;;;;;;;;;;;5052417;28;19947;-75
2022/01/12 06:24:31;;;;;;;;;;;;;;;;;;5053838;28;20348;-76
2022/01/12 06:26:59;;;;;;;;;;;;;;;;;;5052808;28;19925;-75
2022/01/12 06:29:39;;;;;;;;;;;;;;;;;;5053448;28;19916;-76
2022/01/12 06:32:08;;;;;;;;;;;;;;;;;;5052843;28;20258;-76
2022/01/12 06:34:33;;;;;;;;;;;;;;;;;;5053728;28;20409;-77
2022/01/12 06:36:58;;;;;;;;;;;;;;;;;;5053910;28;19956;-76
2022/01/12 06:39:26;;;;;;;;;;;;;;;;;;5039794;28;19959;-76
2022/01/12 06:41:52;;;;;;;;;;;;;;;;;;5057411;28;20350;-76
2022/01/12 06:44:20;;;;;;;;;;;;;;;;;;5056233;28;19978;-75
2022/01/12 06:46:45;;;;;;;;;;;;;;;;;;5057000;28;20337;-76
2022/01/12 06:49:15;;;;;;;;;;;;;;;;;;5057047;28;19948;-77
2022/01/12 06:51:41;;;;;;;;;;;;;;;;;;5057067;28;19928;-76
2022/01/12 06:54:06;;;;;;;;;;;;;;;;;;5039541;28;20234;-76
2022/01/12 06:56:33;;;;;;;;;;;;;;;;;;5053526;28;20000;-76
2022/01/12 06:58:58;;;;;;;;;;;;;;;;;;5045519;28;19925;-76
2022/01/12 07:01:24;;;;;;;;;;;;;;;;;;5055944;28;20356;-76
2022/01/12 07:03:49;;;;;;;;;;;;;;;;;;5055656;28;19920;-75
2022/01/12 07:06:18;;;;;;;;;;;;;;;;;;5051861;28;19999;-75
2022/01/12 07:08:45;;;;;;;;;;;;;;;;;;5055687;28;20041;-75
2022/01/12 07:11:13;;;;;;;;;;;;;;;;;;5056665;28;19917;-76
2022/01/12 07:13:40;;;;;;;;;;;;;;;;;;5055985;28;19956;-75
2022/01/12 07:16:05;;;;;;;;;;;;;;;;;;5056874;28;19940;-75
2022/01/12 07:18:33;;;;;;;;;;;;;;;;;;5050905;28;19956;-82
2022/01/12 07:20:59;;;;;;;;;;;;;;;;;;5055801;28;19956;-82
2022/01/12 07:23:24;;;;;;;;;;;;;;;;;;5055742;28;20341;-83
2022/01/12 07:25:50;;;;;;;;;;;;;;;;;;5053318;28;19924;-81
2022/01/12 07:28:15;;;;;;;;;;;;;;;;;;5036126;28;19956;-82
2022/01/12 07:30:40;;;;;;;;;;;;;;;;;;5035993;28;19913;-82
2022/01/12 07:33:06;;;;;;;;;;;;;;;;;;5048388;28;19917;-82
2022/01/12 07:35:31;;;;;;;;;;;;;;;;;;5056203;28;19913;-81
2022/01/12 07:37:56;;;;;;;;;;;;;;;;;;5038678;28;19917;-80
2022/01/12 07:40:23;;;;;;;;;;;;;;;;;;5056377;28;19924;-83
2022/01/12 07:42:50;;;;;;;;;;;;;;;;;;5056389;28;20357;-83
2022/01/12 07:45:16;;;;;;;;;;;;;;;;;;5056565;28;19920;-83
2022/01/12 07:47:41;;;;;;;;;;;;;;;;;;5056310;28;19913;-82
2022/01/12 07:50:07;;;;;;;;;;;;;;;;;;5053966;28;19917;-84
2022/01/12 07:52:32;;;;;;;;;;;;;;;;;;5055389;28;19924;-83
2022/01/12 07:54:58;;;;;;;;;;;;;;;;;;5056097;28;20257;-80
2022/01/12 07:57:26;;;;;;;;;;;;;;;;;;5051532;28;19925;-84
2022/01/12 07:59:52;;;;;;;;;;;;;;;;;;5043238;28;19992;-85
2022/01/12 08:02:17;;;;;;;;;;;;;;;;;;5044867;28;20425;-85
2022/01/12 08:04:42;;;;;;;;;;;;;;;;;;5040205;28;19921;-83
2022/01/12 08:07:10;;;;;;;;;;;;;;;;;;5035969;28;19920;-83
2022/01/12 08:09:37;;;;;;;;;;;;;;;;;;5034962;28;19913;-83
2022/01/12 08:12:12;;;;;;;;;;;;;;;;;;5039169;28;19955;-83
2022/01/12 08:14:37;;;;;;;;;;;;;;;;;;5051574;28;20289;-85
2022/01/12 08:17:05;;;;;;;;;;;;;;;;;;5034771;28;19917;-85
2022/01/12 08:19:34;;;;;;;;;;;;;;;;;;5048108;28;19971;-88
2022/01/12 08:22:02;;;;;;;;;;;;;;;;;;5053313;28;19962;-85
2022/01/12 08:24:27;;;;;;;;;;;;;;;;;;5055341;28;20024;-87
2022/01/12 08:26:52;;;;;;;;;;;;;;;;;;5062778;28;19951;-87
2022/01/12 08:29:17;;;;;;;;;;;;;;;;;;5018542;28;19966;-87
2022/01/12 08:31:43;;;;;;;;;;;;;;;;;;5037400;28;19912;-80
2022/01/12 08:34:10;;;;;;;;;;;;;;;;;;5054011;28;20349;-80
2022/01/12 08:36:35;;;;;;;;;;;;;;;;;;5064092;28;19917;-83
2022/01/12 08:39:02;;;;;;;;;;;;;;;;;;5064963;28;19923;-82
2022/01/12 08:41:27;;;;;;;;;;;;;;;;;;5064312;28;19912;-83
2022/01/12 08:43:53;;;;;;;;;;;;;;;;;;5057265;28;19992;-81
2022/01/12 08:46:20;;;;;;;;;;;;;;;;;;5064491;28;19956;-81
2022/01/12 08:48:46;;;;;;;;;;;;;;;;;;5055221;28;19912;-82
2022/01/12 08:51:11;;;;;;;;;;;;;;;;;;5054046;28;19954;-81
2022/01/12 08:53:39;;;;;;;;;;;;;;;;;;5046905;28;19917;-82
2022/01/12 08:56:07;;;;;;;;;;;;;;;;;;5035547;28;19999;-82
2022/01/12 08:58:37;;;;;;;;;;;;;;;;;;5045007;28;19916;-81
2022/01/12 09:01:03;;;;;;;;;;;;;;;;;;5054650;28;19932;-82
2022/01/12 09:03:29;;;;;;;;;;;;;;;;;;5054696;28;19958;-82
2022/01/12 09:05:55;;;;;;;;;;;;;;;;;;5048982;28;19921;-82
2022/01/12 09:08:20;;;;;;;;;;;;;;;;;;5053648;28;20007;-82
2022/01/12 09:10:45;;;;;;;;;;;;;;;;;;5053740;28;19971;-83
2022/01/12 09:13:11;;;;;;;;;;;;;;;;;;5053487;28;20000;-82
2022/01/12 09:15:36;;;;;;;;;;;;;;;;;;5053491;28;19939;-83
2022/01/12 09:18:01;;;;;;;;;;;;;;;;;;5052680;28;19916;-82
2022/01/12 09:20:28;;;;;;;;;;;;;;;;;;5052069;28;19916;-83
2022/01/12 09:22:59;;;;;;;;;;;;;;;;;;5053401;28;20349;-84
2022/01/12 09:25:24;;;;;;;;;;;;;;;;;;5049242;28;19917;-82
2022/01/12 09:27:50;;;;;;;;;;;;;;;;;;5046756;28;19940;-83
2022/01/12 09:30:15;;;;;;;;;;;;;;;;;;5037249;28;19920;-82
2022/01/12 09:32:40;;;;;;;;;;;;;;;;;;5054186;28;20342;-83
2022/01/12 09:35:06;;;;;;;;;;;;;;;;;;5053506;28;19923;-83
2022/01/12 09:37:33;;;;;;;;;;;;;;;;;;5054288;28;19999;-82
2022/01/12 09:39:58;;;;;;;;;;;;;;;;;;5053969;28;20262;-84
2022/01/12 09:42:23;;;;;;;;;;;;;;;;;;5053282;28;19917;-82
2022/01/12 09:44:49;;;;;;;;;;;;;;;;;;5053880;28;19929;-83
2022/01/12 09:47:17;;;;;;;;;;;;;;;;;;5053415;28;19960;-82
2022/01/12 09:49:43;;;;;;;;;;;;;;;;;;5054094;28;20455;-83
2022/01/12 09:52:08;;;;;;;;;;;;;;;;;;5054282;28;19964;-83
2022/01/12 09:54:34;;;;;;;;;;;;;;;;;;5053134;28;19943;-83
2022/01/12 09:56:59;;;;;;;;;;;;;;;;;;5052861;28;20349;-82
2022/01/12 09:59:24;;;;;;;;;;;;;;;;;;5053449;28;20395;-82
2022/01/12 10:01:49;;;;;;;;;;;;;;;;;;5054090;28;19920;-82
2022/01/12 10:04:16;;;;;;;;;;;;;;;;;;5053054;28;19912;-83
2022/01/12 10:06:43;;;;;;;;;;;;;;;;;;5051830;28;19927;-82
2022/01/12 10:09:09;;;;;;;;;;;;;;;;;;5052956;28;19936;-83
2022/01/12 10:11:34;;;;;;;;;;;;;;;;;;5037038;28;19916;-82
2022/01/12 10:14:00;;;;;;;;;;;;;;;;;;5058108;28;20399;-83
2022/01/12 10:16:26;;;;;;;;;;;;;;;;;;5057240;28;19917;-81
2022/01/12 10:18:59;;;;;;;;;;;;;;;;;;5059295;28;20008;-82
2022/01/12 10:21:28;;;;;;;;;;;;;;;;;;5077029;28;19996;-82
2022/01/12 10:24:01;;;;;;;;;;;;;;;;;;5061527;28;19920;-83
2022/01/12 10:26:30;;;;;;;;;;;;;;;;;;5057709;28;19912;-83
2022/01/12 10:29:06;;;;;;;;;;;;;;;;;;5056833;28;19971;-83
2022/01/12 10:31:42;;;;;;;;;;;;;;;;;;5039132;28;19917;-83
2022/01/12 10:34:09;;;;;;;;;;;;;;;;;;5057974;28;19924;-83
2022/01/12 10:36:43;;;;;;;;;;;;;;;;;;5047323;28;19917;-81
2022/01/12 10:39:09;;;;;;;;;;;;;;;;;;5043348;28;19917;-83
2022/01/12 10:41:34;;;;;;;;;;;;;;;;;;5047057;28;20431;-82
2022/01/12 10:44:04;;;;;;;;;;;;;;;;;;5037614;28;19917;-83
2022/01/12 10:46:32;;;;;;;;;;;;;;;;;;5041487;28;19913;-83
2022/01/12 10:48:58;;;;;;;;;;;;;;;;;;5056757;28;19959;-83
2022/01/12 10:51:25;;;;;;;;;;;;;;;;;;5055103;28;19978;-81
2022/01/12 10:53:51;;;;;;;;;;;;;;;;;;5057246;28;19920;-82
2022/01/12 10:56:17;;;;;;;;;;;;;;;;;;5057280;28;19944;-82
2022/01/12 10:58:44;;;;;;;;;;;;;;;;;;5054936;28;20396;-82
2022/01/12 11:01:11;;;;;;;;;;;;;;;;;;5056891;28;19958;-82
2022/01/12 11:03:37;;;;;;;;;;;;;;;;;;5055856;28;19921;-83
2022/01/12 11:06:03;;;;;;;;;;;;;;;;;;5056507;28;19964;-82
2022/01/12 11:08:28;;;;;;;;;;;;;;;;;;5054701;28;19944;-84
2022/01/12 11:10:54;;;;;;;;;;;;;;;;;;5055752;28;19919;-83
2022/01/12 11:13:20;;;;;;;;;;;;;;;;;;5056921;28;20004;-82
2022/01/12 11:15:45;;;;;;;;;;;;;;;;;;5052339;28;20384;-82
2022/01/12 11:18:10;;;;;;;;;;;;;;;;;;5028919;28;20377;-82
2022/01/12 11:20:38;;;;;;;;;;;;;;;;;;5055500;28;20365;-83
2022/01/12 11:23:05;;;;;;;;;;;;;;;;;;5056015;28;19916;-83
2022/01/12 11:25:34;;;;;;;;;;;;;;;;;;5040841;28;20326;-82
2022/01/12 11:28:02;;;;;;;;;;;;;;;;;;5065019;28;19980;-82
2022/01/12 11:30:28;;;;;;;;;;;;;;;;;;5060035;28;19913;-79
2022/01/12 11:32:58;;;;;;;;;;;;;;;;;;5056022;28;19924;-82
2022/01/12 11:35:27;;;;;;;;;;;;;;;;;;5039293;28;19916;-82
2022/01/12 11:37:59;;;;;;;;;;;;;;;;;;5057226;28;19912;-83
2022/01/12 11:40:33;;;;;;;;;;;;;;;;;;5056236;28;19909;-82
2022/01/12 11:43:01;;;;;;;;;;;;;;;;;;5056052;28;20027;-81
2022/01/12 11:45:26;;;;;;;;;;;;;;;;;;5056694;28;19912;-82
2022/01/12 11:47:54;;;;;;;;;;;;;;;;;;5056051;28;20338;-82
2022/01/12 11:50:22;;;;;;;;;;;;;;;;;;5055209;28;19912;-81
2022/01/12 11:52:47;;;;;;;;;;;;;;;;;;5056551;28;19913;-82
2022/01/12 11:55:13;;;;;;;;;;;;;;;;;;5054606;28;19950;-80
2022/01/12 11:57:41;;;;;;;;;;;;;;;;;;5055915;28;19921;-82
2022/01/12 12:00:19;;;;;;;;;;;;;;;;;;5038723;28;20337;-81
2022/01/12 12:02:49;;;;;;;;;;;;;;;;;;5055872;28;19983;-82
2022/01/12 12:05:17;;;;;;;;;;;;;;;;;;5055254;28;19948;-82
2022/01/12 12:07:49;;;;;;;;;;;;;;;;;;5055698;28;20257;-81
2022/01/12 12:10:16;;;;;;;;;;;;;;;;;;5055599;28;19990;-82
2022/01/12 12:12:44;;;;;;;;;;;;;;;;;;5052496;28;19927;-82
2022/01/12 12:15:12;;;;;;;;;;;;;;;;;;5055182;28;20357;-83
2022/01/12 12:17:46;;;;;;;;;;;;;;;;;;5050545;28;19916;-83
2022/01/12 12:20:15;;;;;;;;;;;;;;;;;;5055611;28;19994;-83
2022/01/12 12:22:44;;;;;;;;;;;;;;;;;;5038067;28;19916;-83
2022/01/12 12:25:13;;;;;;;;;;;;;;;;;;5058123;28;19925;-84
2022/01/12 12:27:39;;;;;;;;;;;;;;;;;;5057944;28;19913;-83
2022/01/12 12:30:09;;;;;;;;;;;;;;;;;;5057946;28;20437;-83
2022/01/12 12:33:03;;;;;;;;;;;;;;;;;;5054474;28;19924;-83
2022/01/12 12:35:31;;;;;;;;;;;;;;;;;;5050013;28;19924;-85
2022/01/12 12:37:58;;;;;;;;;;;;;;;;;;5057572;28;20002;-86
2022/01/12 12:40:29;;;;;;;;;;;;;;;;;;5049139;28;19931;-82
2022/01/12 12:43:03;;;;;;;;;;;;;;;;;;5046046;28;19924;-83
2022/01/12 12:45:35;;;;;;;;;;;;;;;;;;5047979;28;20304;-85
2022/01/12 12:48:04;;;;;;;;;;;;;;;;;;5047176;28;19917;-83
2022/01/12 12:50:32;;;;;;;;;;;;;;;;;;5043208;28;19917;-84
2022/01/12 12:52:57;;;;;;;;;;;;;;;;;;5035391;28;19913;-82
2022/01/12 12:55:23;;;;;;;;;;;;;;;;;;5043753;28;19916;-82
2022/01/12 12:57:49;;;;;;;;;;;;;;;;;;5053838;28;20245;-84
2022/01/12 13:00:19;;;;;;;;;;;;;;;;;;5052354;28;21184;-82
2022/01/12 13:02:45;;;;;;;;;;;;;;;;;;5050386;28;19929;-81
2022/01/12 13:05:13;;;;;;;;;;;;;;;;;;5042022;28;19921;-82
2022/01/12 13:07:40;;;;;;;;;;;;;;;;;;5051785;28;19928;-83
2022/01/12 13:10:06;;;;;;;;;;;;;;;;;;5037207;28;20326;-84
2022/01/12 13:12:38;;;;;;;;;;;;;;;;;;5053951;28;19913;-83
2022/01/12 13:15:03;;;;;;;;;;;;;;;;;;5033672;28;19924;-82
2022/01/12 13:17:29;;;;;;;;;;;;;;;;;;5053149;28;20265;-82
2022/01/12 13:22:24;;;;;;;;;;;;;;;;;;5053781;28;19913;-83
2022/01/12 13:24:52;;;;;;;;;;;;;;;;;;5053479;28;20223;-83
2022/01/12 13:27:24;;;;;;;;;;;;;;;;;;5053145;28;19917;-83
2022/01/12 13:29:49;;;;;;;;;;;;;;;;;;5036575;28;19917;-84
2022/01/12 13:32:15;;;;;;;;;;;;;;;;;;5050104;28;19928;-83
2022/01/12 13:34:43;;;;;;;;;;;;;;;;;;5033339;28;19913;-83
2022/01/12 13:37:14;;;;;;;;;;;;;;;;;;5050398;28;19913;-82
2022/01/12 13:39:40;;;;;;;;;;;;;;;;;;5053305;28;19952;-83
2022/01/12 13:42:05;;;;;;;;;;;;;;;;;;5054270;28;20032;-83
2022/01/12 13:44:30;;;;;;;;;;;;;;;;;;5036742;28;19974;-82
2022/01/12 13:47:22;;;;;;;;;;;;;;;;;;5033005;28;19917;-83
2022/01/12 13:49:47;;;;;;;;;;;;;;;;;;5060403;28;19923;-83
2022/01/12 13:52:12;;;;;;;;;;;;;;;;;;5049962;28;19921;-82
2022/01/12 13:54:42;;;;;;;;;;;;;;;;;;5055723;28;20313;-82
2022/01/12 13:57:11;;;;;;;;;;;;;;;;;;5056759;28;20247;-82
2022/01/12 13:59:51;;;;;;;;;;;;;;;;;;5058416;28;20459;-82
2022/01/12 14:02:17;;;;;;;;;;;;;;;;;;5058049;28;19971;-82
2022/01/12 14:04:46;;;;;;;;;;;;;;;;;;5057926;28;19971;-82
2022/01/12 14:07:21;;;;;;;;;;;;;;;;;;5058060;28;19924;-83
2022/01/12 14:09:52;;;;;;;;;;;;;;;;;;5057272;28;19959;-81
2022/01/12 14:12:18;;;;;;;;;;;;;;;;;;5075636;28;19913;-83
2022/01/12 14:14:50;;;;;;;;;;;;;;;;;;5057105;28;20019;-83
2022/01/12 14:17:33;;;;;;;;;;;;;;;;;;5057950;28;20004;-83
2022/01/12 14:19:59;;;;;;;;;;;;;;;;;;5068747;28;19940;-82
2022/01/12 14:22:25;;;;;;;;;;;;;;;;;;5060927;28;20238;-83
2022/01/12 14:25:02;;;;;;;;;;;;;;;;;;5056218;28;19986;-83
2022/01/12 14:27:42;;;;;;;;;;;;;;;;;;5057106;28;19964;-83
2022/01/12 14:30:09;;;;;;;;;;;;;;;;;;5057126;28;19967;-83
2022/01/12 14:32:36;;;;;;;;;;;;;;;;;;5058159;28;20003;-83
2022/01/12 14:35:03;;;;;;;;;;;;;;;;;;5057708;28;19913;-83
2022/01/12 14:37:28;;;;;;;;;;;;;;;;;;5050143;28;20396;-82
2022/01/12 14:39:53;;;;;;;;;;;;;;;;;;5057720;28;19912;-83
2022/01/12 14:42:18;;;;;;;;;;;;;;;;;;5057637;28;19916;-81
2022/01/12 14:44:43;;;;;;;;;;;;;;;;;;5057302;28;19920;-83
2022/01/12 14:47:09;;;;;;;;;;;;;;;;;;5046512;28;19969;-83
2022/01/12 14:49:36;;;;;;;;;;;;;;;;;;5046214;28;19912;-82
2022/01/12 14:52:02;;;;;;;;;;;;;;;;;;5053953;28;19923;-82
2022/01/12 14:54:27;;;;;;;;;;;;;;;;;;5047887;28;19917;-83
2022/01/12 14:56:52;;;;;;;;;;;;;;;;;;5051828;28;20353;-83
2022/01/12 14:59:24;;;;;;;;;;;;;;;;;;5053737;28;19913;-83
2022/01/12 15:01:49;;;;;;;;;;;;;;;;;;5048790;28;19971;-83
2022/01/12 15:07:17;;;;;;;;;;;;;;;;;;5048327;28;19995;-83
2022/01/12 15:09:44;;;;;;;;;;;;;;;;;;5042646;28;19940;-82
2022/01/12 15:12:14;;;;;;;;;;;;;;;;;;5047241;28;20047;-83
2022/01/12 15:29:31;;;;;;;;;;;;;;;;;;5014656;28;20362;-82
2022/01/12 15:32:05;;;;;;;;;;;;;;;;;;5015575;28;19913;-83
2022/01/12 15:34:30;;;;;;;;;;;;;;;;;;5014997;28;20266;-82
2022/01/12 15:36:55;;;;;;;;;;;;;;;;;;5009633;28;19929;-83
2022/01/12 15:39:21;;;;;;;;;;;;;;;;;;5015259;28;20388;-82
2022/01/12 15:41:47;;;;;;;;;;;;;;;;;;5014229;28;19956;-82
2022/01/12 15:44:12;;;;;;;;;;;;;;;;;;5001697;28;19925;-83
2022/01/12 15:46:38;;;;;;;;;;;;;;;;;;4991208;28;20420;-82
2022/01/12 15:49:03;;;;;;;;;;;;;;;;;;5011716;28;20008;-81
2022/01/12 15:51:30;;;;;;;;;;;;;;;;;;4994206;28;19913;-82
2022/01/12 15:53:56;;;;;;;;;;;;;;;;;;5009257;28;20011;-83
2022/01/12 15:56:24;;;;;;;;;;;;;;;;;;5020594;28;20044;-82
2022/01/12 15:58:49;;;;;;;;;;;;;;;;;;5013111;28;19920;-84
2022/01/12 16:01:14;;;;;;;;;;;;;;;;;;5013805;28;19913;-83
2022/01/12 16:03:39;;;;;;;;;;;;;;;;;;5010799;28;20016;-83
2022/01/12 16:06:05;;;;;;;;;;;;;;;;;;5042654;28;20257;-81
2022/01/12 16:08:32;;;;;;;;;;;;;;;;;;5055881;28;20070;-83
2022/01/12 16:11:33;;;;;;;;;;;;;;;;;;5055177;28;19970;-83
2022/01/12 16:14:00;;;;;;;;;;;;;;;;;;5056130;28;19913;-80
2022/01/12 16:16:25;;;;;;;;;;;;;;;;;;5055825;28;19932;-81
2022/01/12 16:18:54;;;;;;;;;;;;;;;;;;5056040;28;19912;-82
2022/01/12 16:21:19;;;;;;;;;;;;;;;;;;5052487;28;20338;-81
2022/01/12 16:23:44;;;;;;;;;;;;;;;;;;5055534;28;19927;-81
2022/01/12 16:26:09;;;;;;;;;;;;;;;;;;5054009;28;19923;-85
2022/01/12 16:28:35;;;;;;;;;;;;;;;;;;5054579;28;20345;-82
2022/01/12 16:31:01;;;;;;;;;;;;;;;;;;5054205;28;20437;-81
2022/01/12 16:33:31;;;;;;;;;;;;;;;;;;5055664;28;19913;-83
2022/01/12 16:35:58;;;;;;;;;;;;;;;;;;5044724;28;19913;-84
2022/01/12 16:38:24;;;;;;;;;;;;;;;;;;5050348;28;19983;-81
2022/01/12 16:40:50;;;;;;;;;;;;;;;;;;5051078;28;20341;-82
2022/01/12 16:43:18;;;;;;;;;;;;;;;;;;5061969;28;19912;-82
2022/01/12 16:45:44;;;;;;;;;;;;;;;;;;5047114;28;19916;-83
2022/01/12 16:48:09;;;;;;;;;;;;;;;;;;5056076;28;19935;-83
2022/01/12 16:50:34;;;;;;;;;;;;;;;;;;5056879;28;19913;-83
2022/01/12 16:53:02;;;;;;;;;;;;;;;;;;5037892;28;19913;-81
2022/01/12 16:55:28;;;;;;;;;;;;;;;;;;5054296;28;19916;-83
2022/01/12 16:57:55;;;;;;;;;;;;;;;;;;5057876;28;19921;-83
2022/01/12 17:00:20;;;;;;;;;;;;;;;;;;5059527;28;19956;-82
2022/01/12 17:02:45;;;;;;;;;;;;;;;;;;5048629;28;19968;-84
2022/01/12 17:05:11;;;;;;;;;;;;;;;;;;5053902;28;19936;-82
2022/01/12 17:07:41;;;;;;;;;;;;;;;;;;5054060;28;20003;-81
2022/01/12 17:10:07;;;;;;;;;;;;;;;;;;5054536;28;19927;-82
2022/01/12 17:12:32;;;;;;;;;;;;;;;;;;5053546;28;19912;-81
2022/01/12 17:14:58;;;;;;;;;;;;;;;;;;5063637;28;19917;-81
2022/01/12 17:17:42;;;;;;;;;;;;;;;;;;5059639;28;19927;-81
2022/01/12 17:20:08;;;;;;;;;;;;;;;;;;5054026;28;19913;-82
2022/01/12 17:22:33;;;;;;;;;;;;;;;;;;5052670;28;20302;-82
2022/01/12 17:25:21;;;;;;;;;;;;;;;;;;5052334;28;19951;-83
2022/01/12 17:28:18;;;;;;;;;;;;;;;;;;5051534;28;19925;-83
2022/01/12 17:30:44;;;;;;;;;;;;;;;;;;5036238;28;19935;-83
2022/01/12 17:33:12;;;;;;;;;;;;;;;;;;5053693;28;19991;-83
2022/01/12 17:35:37;;;;;;;;;;;;;;;;;;5054436;28;19921;-84
2022/01/12 17:38:08;;;;;;;;;;;;;;;;;;5053619;28;20378;-84
2022/01/12 17:40:39;;;;;;;;;;;;;;;;;;5028087;28;19921;-85
2022/01/12 17:43:07;;;;;;;;;;;;;;;;;;5042815;28;19930;-83
2022/01/12 17:45:32;;;;;;;;;;;;;;;;;;5053913;28;19921;-82
2022/01/12 17:48:00;;;;;;;;;;;;;;;;;;5045710;28;19920;-82
2022/01/12 17:50:28;;;;;;;;;;;;;;;;;;5052248;28;19959;-81
2022/01/12 17:52:53;;;;;;;;;;;;;;;;;;5052867;28;19920;-81
2022/01/12 17:55:19;;;;;;;;;;;;;;;;;;5053262;28;20058;-80
2022/01/12 17:57:47;;;;;;;;;;;;;;;;;;5053771;28;20049;-79
2022/01/12 18:00:14;;;;;;;;;;;;;;;;;;5052654;28;19948;-81
2022/01/12 18:02:40;;;;;;;;;;;;;;;;;;5035937;28;19921;-81
2022/01/12 18:05:05;;;;;;;;;;;;;;;;;;5035803;28;19928;-82
2022/01/12 18:07:31;;;;;;;;;;;;;;;;;;5050031;28;19952;-83
2022/01/12 18:09:56;;;;;;;;;;;;;;;;;;5031815;28;19925;-82
2022/01/12 18:12:22;;;;;;;;;;;;;;;;;;5033444;28;20094;-83
2022/01/12 18:14:54;;;;;;;;;;;;;;;;;;5047317;28;19928;-84
2022/01/12 18:17:26;;;;;;;;;;;;;;;;;;5051345;28;19917;-82
2022/01/12 18:19:54;;;;;;;;;;;;;;;;;;5051538;28;19943;-85
2022/01/12 18:22:21;;;;;;;;;;;;;;;;;;5051742;28;19924;-85
2022/01/12 18:24:46;;;;;;;;;;;;;;;;;;5050504;28;19943;-86
2022/01/12 18:27:11;;;;;;;;;;;;;;;;;;5052699;28;20345;-83
2022/01/12 18:29:37;;;;;;;;;;;;;;;;;;5052020;28;19920;-89